Time;durP1;ratioP1;P1;durP2;ratioP2;P2;SDS_P1;SDS_P2;PMS_P1;PMS_P2;Temp;Humidity;BMP_temperature;BMP_pressure;BME280_temperature;BME280_humidity;BME280_pressure;Samples;Min_cycle;Max_cycle;Signal;HPM_P1;HPM_P2
2022/09/16 00:00:23;;;;;;;3.78;0.93;;;10.60;99.90;;;;;;5078092;28;20036;-65
2022/09/16 00:02:51;;;;;;;7.40;0.90;;;10.70;99.90;;;;;;5077395;28;20171;-65
2022/09/16 00:05:17;;;;;;;3.17;0.90;;;10.70;99.90;;;;;;5072977;28;20043;-65
2022/09/16 00:07:43;;;;;;;6.63;0.95;;;10.70;99.90;;;;;;5076670;28;20406;-65
2022/09/16 00:10:09;;;;;;;3.92;0.82;;;10.60;99.90;;;;;;5076389;28;20246;-65
2022/09/16 00:12:35;;;;;;;8.93;1.25;;;10.60;99.90;;;;;;5076197;28;20060;-65
2022/09/16 00:15:00;;;;;;;8.45;1.20;;;10.70;99.90;;;;;;5086464;28;20109;-65
2022/09/16 00:17:26;;;;;;;4.53;1.13;;;10.70;99.90;;;;;;5081429;28;20188;-65
2022/09/16 00:19:52;;;;;;;3.45;1.10;;;10.70;99.90;;;;;;5085122;28;20035;-65
2022/09/16 00:22:17;;;;;;;5.95;1.10;;;10.70;99.90;;;;;;5085667;28;20482;-65
2022/09/16 00:24:43;;;;;;;3.10;0.90;;;10.60;99.90;;;;;;5083768;28;20115;-64
2022/09/16 00:27:09;;;;;;;7.47;1.00;;;10.60;99.90;;;;;;5088245;28;20036;-65
2022/09/16 00:29:34;;;;;;;5.20;1.35;;;10.60;99.90;;;;;;5082802;28;20223;-64
2022/09/16 00:32:00;;;;;;;2.60;0.75;;;10.60;99.90;;;;;;5081864;28;20395;-64
2022/09/16 00:34:26;;;;;;;3.75;1.05;;;10.60;99.90;;;;;;5080312;28;20024;-64
2022/09/16 00:36:51;;;;;;;5.47;1.10;;;10.60;99.90;;;;;;5080883;28;20079;-64
2022/09/16 00:39:17;;;;;;;4.53;1.13;;;10.50;99.90;;;;;;5088062;28;20036;-64
2022/09/16 00:41:43;;;;;;;6.22;0.82;;;10.50;99.90;;;;;;5084033;28;20043;-64
2022/09/16 00:44:46;;;;;;;6.60;1.00;;;10.60;99.90;;;;;;5082181;28;20056;-64
2022/09/16 00:47:15;;;;;;;4.47;1.15;;;10.60;99.90;;;;;;5085970;28;20048;-66
2022/09/16 00:49:42;;;;;;;9.23;1.65;;;10.70;99.90;;;;;;5073901;28;20090;-66
2022/09/16 00:52:09;;;;;;;7.72;1.33;;;10.60;99.90;;;;;;5083849;28;20092;-64
2022/09/16 00:54:36;;;;;;;4.55;1.27;;;10.60;99.90;;;;;;5072907;28;20033;-65
2022/09/16 00:57:03;;;;;;;6.22;1.10;;;10.60;99.90;;;;;;5080592;28;20505;-65
2022/09/16 00:59:34;;;;;;;7.40;1.30;;;10.60;99.90;;;;;;5083519;28;20064;-65
2022/09/16 01:02:06;;;;;;;4.10;0.98;;;10.60;99.90;;;;;;5080188;28;20423;-65
2022/09/16 01:04:35;;;;;;;5.72;1.02;;;10.70;99.90;;;;;;5078024;28;20515;-65
2022/09/16 01:07:01;;;;;;;6.93;1.30;;;10.70;99.90;;;;;;5085534;28;20040;-65
2022/09/16 01:09:28;;;;;;;6.80;1.10;;;10.70;99.90;;;;;;5083013;28;20067;-65
2022/09/16 01:11:54;;;;;;;3.67;1.15;;;10.60;99.90;;;;;;5083079;28;20043;-65
2022/09/16 01:17:29;;;;;;;4.95;1.30;;;10.60;99.90;;;;;;5080626;28;20039;-65
2022/09/16 01:20:00;;;;;;;2.65;0.90;;;10.60;99.90;;;;;;5075083;28;20032;-64
2022/09/16 01:22:35;;;;;;;3.10;0.80;;;10.50;99.90;;;;;;5085695;28;20631;-65
2022/09/16 01:25:28;;;;;;;2.90;1.05;;;10.60;99.90;;;;;;5082344;28;20130;-66
2022/09/16 01:28:14;;;;;;;5.05;1.00;;;10.60;99.90;;;;;;5075083;28;20069;-66
2022/09/16 01:30:49;;;;;;;4.38;1.15;;;10.60;99.90;;;;;;5080143;28;20024;-65
2022/09/16 01:33:42;;;;;;;3.08;1.10;;;10.60;99.90;;;;;;5081240;28;20369;-65
2022/09/16 01:36:40;;;;;;;6.20;1.15;;;10.60;99.90;;;;;;5080319;28;20177;-65
2022/09/16 01:39:29;;;;;;;8.57;1.27;;;10.60;99.90;;;;;;5077096;28;20055;-65
2022/09/16 01:42:10;;;;;;;3.05;0.80;;;10.60;99.90;;;;;;5076851;28;20453;-65
2022/09/16 01:44:45;;;;;;;3.63;1.02;;;10.60;99.90;;;;;;5086984;28;20048;-65
2022/09/16 01:47:33;;;;;;;4.40;1.55;;;10.60;99.90;;;;;;5086943;28;20083;-64
2022/09/16 01:50:24;;;;;;;6.53;1.10;;;10.60;99.90;;;;;;5079104;28;20044;-65
2022/09/16 01:53:25;;;;;;;4.53;1.60;;;10.50;99.90;;;;;;5087310;28;20036;-65
2022/09/16 01:56:04;;;;;;;4.82;1.27;;;10.60;99.90;;;;;;5048095;28;20523;-65
2022/09/16 01:58:46;;;;;;;4.80;1.30;;;10.60;99.90;;;;;;5072956;28;20044;-64
2022/09/16 02:01:31;;;;;;;6.05;1.40;;;10.50;99.90;;;;;;5080613;28;20032;-65
2022/09/16 02:04:05;;;;;;;5.57;1.10;;;10.60;99.90;;;;;;5075468;28;20055;-64
2022/09/16 02:06:32;;;;;;;6.15;1.33;;;10.60;99.90;;;;;;5078017;28;20051;-64
2022/09/16 02:09:10;;;;;;;5.50;1.30;;;10.50;99.90;;;;;;5081315;28;20048;-65
2022/09/16 02:11:38;;;;;;;3.95;1.30;;;10.50;99.90;;;;;;5081547;28;20032;-65
2022/09/16 02:14:17;;;;;;;4.60;1.05;;;10.40;99.90;;;;;;5085622;28;20526;-64
2022/09/16 02:16:55;;;;;;;5.97;1.42;;;10.30;99.90;;;;;;5084300;28;20052;-65
2022/09/16 02:19:32;;;;;;;5.07;1.50;;;10.30;99.90;;;;;;5088004;28;20123;-65
2022/09/16 02:22:01;;;;;;;4.75;1.02;;;10.20;99.90;;;;;;5083286;28;20044;-65
2022/09/16 02:24:30;;;;;;;6.05;1.55;;;10.30;99.90;;;;;;5084638;28;20047;-64
2022/09/16 02:27:01;;;;;;;5.60;1.10;;;10.30;99.90;;;;;;5087339;28;20051;-64
2022/09/16 02:29:35;;;;;;;3.25;1.10;;;10.20;99.90;;;;;;5083760;28;20123;-64
2022/09/16 02:32:03;;;;;;;4.95;1.00;;;10.20;99.90;;;;;;5087341;28;20115;-64
2022/09/16 02:34:36;;;;;;;6.50;1.33;;;10.10;99.90;;;;;;5087409;28;20375;-64
2022/09/16 02:37:07;;;;;;;4.22;1.10;;;10.10;99.90;;;;;;5082584;28;20087;-64
2022/09/16 02:39:37;;;;;;;3.70;1.30;;;10.10;99.90;;;;;;5083959;28;20043;-64
2022/09/16 02:42:04;;;;;;;3.30;1.05;;;10.00;99.90;;;;;;5084988;28;20056;-64
2022/09/16 02:44:30;;;;;;;8.63;1.23;;;10.00;99.90;;;;;;5081355;28;20039;-64
2022/09/16 02:47:07;;;;;;;1.88;1.10;;;10.00;99.90;;;;;;5086389;28;20135;-65
2022/09/16 02:49:51;;;;;;;3.75;1.35;;;10.10;99.90;;;;;;5085586;28;20972;-66
2022/09/16 02:52:31;;;;;;;3.10;1.42;;;10.20;99.90;;;;;;5087790;28;20050;-65
2022/09/16 02:55:03;;;;;;;6.10;1.43;;;10.30;99.90;;;;;;5083620;28;20051;-65
2022/09/16 02:57:29;;;;;;;5.40;1.40;;;10.20;99.90;;;;;;5083134;28;20324;-65
2022/09/16 02:59:55;;;;;;;3.40;1.08;;;10.30;99.90;;;;;;5084831;28;20117;-65
2022/09/16 03:02:21;;;;;;;4.65;1.23;;;10.40;99.90;;;;;;5082219;28;20099;-65
2022/09/16 03:04:47;;;;;;;4.35;1.20;;;10.40;99.90;;;;;;5083315;28;20052;-65
2022/09/16 03:07:14;;;;;;;11.18;1.60;;;10.30;99.90;;;;;;5077830;28;20039;-65
2022/09/16 03:09:42;;;;;;;5.25;1.38;;;10.30;99.90;;;;;;5073543;28;20039;-65
2022/09/16 03:12:43;;;;;;;5.90;1.20;;;10.40;99.90;;;;;;5077953;28;20491;-65
2022/09/16 03:15:21;;;;;;;5.13;1.30;;;10.50;99.90;;;;;;5073971;28;20479;-65
2022/09/16 03:18:11;;;;;;;5.40;1.50;;;10.50;99.90;;;;;;5078764;28;20348;-65
2022/09/16 03:20:58;;;;;;;7.97;1.38;;;10.50;99.90;;;;;;5079401;28;20047;-65
2022/09/16 03:23:48;;;;;;;6.43;1.20;;;10.50;99.90;;;;;;5079469;28;20051;-65
2022/09/16 03:26:37;;;;;;;4.28;1.20;;;10.50;99.90;;;;;;5077363;28;20043;-65
2022/09/16 03:29:17;;;;;;;6.18;1.73;;;10.50;99.90;;;;;;5079281;28;20388;-64
2022/09/16 03:32:06;;;;;;;7.63;1.45;;;10.50;99.90;;;;;;5083295;28;20032;-65
2022/09/16 03:34:43;;;;;;;5.30;1.88;;;10.40;99.90;;;;;;5080375;28;20567;-64
2022/09/16 03:37:13;;;;;;;6.22;1.33;;;10.40;99.90;;;;;;5074259;28;20101;-65
2022/09/16 03:39:40;;;;;;;8.43;1.42;;;10.30;99.90;;;;;;5081557;28;20055;-65
2022/09/16 03:42:10;;;;;;;3.47;1.30;;;10.20;99.90;;;;;;5087636;28;20055;-65
2022/09/16 03:44:38;;;;;;;4.43;1.33;;;10.20;99.90;;;;;;5078763;28;20555;-64
2022/09/16 03:47:05;;;;;;;8.23;1.30;;;10.20;99.90;;;;;;5084941;28;20041;-64
2022/09/16 03:49:30;;;;;;;6.40;1.40;;;10.20;99.90;;;;;;5083657;28;20040;-64
2022/09/16 03:51:57;;;;;;;4.43;1.23;;;10.10;99.90;;;;;;5086526;28;20082;-64
2022/09/16 03:54:23;;;;;;;5.18;1.13;;;10.10;99.90;;;;;;5084754;28;20034;-64
2022/09/16 03:56:48;;;;;;;3.75;1.13;;;10.00;99.90;;;;;;5082441;28;20031;-64
2022/09/16 03:59:14;;;;;;;4.43;1.30;;;10.00;99.90;;;;;;5079128;28;20511;-64
2022/09/16 04:01:40;;;;;;;8.05;1.20;;;9.90;99.90;;;;;;5078103;28;20655;-64
2022/09/16 04:04:05;;;;;;;4.25;0.95;;;9.90;99.90;;;;;;5081122;28;20147;-64
2022/09/16 04:06:31;;;;;;;4.63;1.02;;;9.90;99.90;;;;;;5080385;28;20845;-64
2022/09/16 04:08:58;;;;;;;5.90;1.20;;;10.00;99.90;;;;;;5077705;28;20479;-64
2022/09/16 04:11:23;;;;;;;4.70;0.90;;;10.00;99.90;;;;;;5079632;28;20032;-64
2022/09/16 04:13:49;;;;;;;5.97;1.17;;;9.90;99.90;;;;;;5084703;28;20039;-64
2022/09/16 04:16:20;;;;;;;4.78;1.25;;;9.90;99.90;;;;;;5067700;28;20490;-64
2022/09/16 04:18:46;;;;;;;5.30;1.20;;;9.90;99.90;;;;;;5081982;28;20044;-64
2022/09/16 04:21:11;;;;;;;7.80;1.05;;;9.90;99.90;;;;;;5085286;28;20067;-65
2022/09/16 04:23:37;;;;;;;4.13;0.95;;;9.90;99.90;;;;;;5085441;28;20071;-64
2022/09/16 04:26:03;;;;;;;5.47;1.38;;;9.90;99.90;;;;;;5082600;28;20040;-64
2022/09/16 04:28:30;;;;;;;4.78;1.05;;;10.00;99.90;;;;;;5090041;28;20036;-65
2022/09/16 04:31:00;;;;;;;4.90;1.10;;;9.90;99.90;;;;;;5075300;28;21073;-64
2022/09/16 04:33:31;;;;;;;9.73;1.73;;;9.90;99.90;;;;;;5084709;28;20036;-64
2022/09/16 04:36:09;;;;;;;5.20;1.10;;;10.00;99.90;;;;;;5084569;28;20092;-64
2022/09/16 04:38:35;;;;;;;5.20;1.20;;;9.90;99.90;;;;;;5081715;28;20044;-64
2022/09/16 04:41:03;;;;;;;6.50;1.10;;;9.80;99.90;;;;;;5079500;28;20042;-64
2022/09/16 04:43:28;;;;;;;6.47;1.13;;;9.80;99.90;;;;;;5080379;28;20666;-65
2022/09/16 04:45:54;;;;;;;9.65;1.30;;;9.70;99.90;;;;;;5083826;28;20043;-65
2022/09/16 04:48:20;;;;;;;3.47;1.10;;;9.70;99.90;;;;;;5088296;28;20826;-65
2022/09/16 04:50:46;;;;;;;5.70;1.02;;;9.70;99.90;;;;;;5075596;28;20089;-65
2022/09/16 04:53:11;;;;;;;4.40;1.00;;;9.60;99.90;;;;;;5080773;28;20047;-64
2022/09/16 04:55:37;;;;;;;5.78;1.42;;;9.60;99.90;;;;;;5079407;28;20032;-64
2022/09/16 04:58:02;;;;;;;4.68;1.27;;;9.50;99.90;;;;;;5077454;28;20038;-65
2022/09/16 05:00:28;;;;;;;5.03;1.05;;;9.50;99.90;;;;;;5082489;28;20597;-65
2022/09/16 05:02:54;;;;;;;4.25;1.35;;;9.50;99.90;;;;;;5073669;28;20051;-65
2022/09/16 05:05:20;;;;;;;4.35;1.25;;;9.40;99.90;;;;;;5085064;28;20532;-65
2022/09/16 05:07:45;;;;;;;5.38;1.10;;;9.50;99.90;;;;;;5068659;28;20051;-64
2022/09/16 05:10:11;;;;;;;7.10;1.05;;;9.40;99.90;;;;;;5080234;28;20068;-65
2022/09/16 05:12:37;;;;;;;5.18;1.13;;;9.40;99.90;;;;;;5080507;28;20407;-65
2022/09/16 05:15:04;;;;;;;3.65;1.00;;;9.40;99.90;;;;;;5082883;28;20032;-65
2022/09/16 05:17:30;;;;;;;6.40;1.23;;;9.30;99.90;;;;;;5088338;28;20040;-65
2022/09/16 05:19:56;;;;;;;5.43;1.15;;;9.30;99.90;;;;;;5080933;28;22772;-64
2022/09/16 05:22:22;;;;;;;5.15;1.08;;;9.30;99.90;;;;;;5085552;28;20128;-65
2022/09/16 05:24:48;;;;;;;7.85;1.48;;;9.40;99.90;;;;;;5079242;28;20072;-64
2022/09/16 05:27:14;;;;;;;3.10;1.02;;;9.40;99.90;;;;;;5082153;28;20074;-65
2022/09/16 05:29:40;;;;;;;6.28;1.40;;;9.40;99.90;;;;;;5083503;28;20359;-65
2022/09/16 05:32:06;;;;;;;8.98;1.30;;;9.40;99.90;;;;;;5078002;28;20070;-65
2022/09/16 05:34:31;;;;;;;4.93;1.35;;;9.40;99.90;;;;;;5080936;28;20093;-64
2022/09/16 05:36:57;;;;;;;7.72;1.23;;;9.40;99.90;;;;;;5080301;28;20054;-65
2022/09/16 05:39:23;;;;;;;5.55;1.00;;;9.40;99.90;;;;;;5080686;28;20411;-64
2022/09/16 05:41:51;;;;;;;2.45;0.90;;;9.40;99.90;;;;;;5081616;28;20032;-65
2022/09/16 05:44:17;;;;;;;4.82;1.13;;;9.40;99.90;;;;;;5084315;28;20064;-65
2022/09/16 05:46:43;;;;;;;6.68;1.45;;;9.40;99.90;;;;;;5082321;28;20127;-65
2022/09/16 05:49:09;;;;;;;10.05;1.33;;;9.40;99.90;;;;;;5081820;28;20028;-64
2022/09/16 05:51:37;;;;;;;7.70;1.17;;;9.40;99.90;;;;;;5084767;28;20035;-65
2022/09/16 05:54:03;;;;;;;8.45;1.05;;;9.40;99.90;;;;;;5082559;28;20032;-65
2022/09/16 05:56:30;;;;;;;6.53;1.30;;;9.40;99.90;;;;;;5082183;28;20528;-65
2022/09/16 05:58:58;;;;;;;9.35;1.50;;;9.50;99.90;;;;;;5083949;28;20047;-65
2022/09/16 06:01:27;;;;;;;8.43;1.95;;;9.60;99.90;;;;;;5077305;28;20039;-65
2022/09/16 06:03:56;;;;;;;6.68;1.02;;;9.60;99.90;;;;;;5076979;28;20132;-65
2022/09/16 06:06:27;;;;;;;8.73;1.45;;;9.70;99.90;;;;;;5078399;28;20155;-65
2022/09/16 06:08:56;;;;;;;5.82;1.27;;;9.80;99.90;;;;;;5083500;28;20127;-65
2022/09/16 06:11:23;;;;;;;4.63;1.20;;;9.80;99.90;;;;;;5076089;28;20032;-65
2022/09/16 06:14:00;;;;;;;6.55;1.10;;;9.80;99.90;;;;;;5075631;28;20079;-65
2022/09/16 06:16:27;;;;;;;8.45;1.27;;;9.90;99.90;;;;;;5075313;28;20518;-65
2022/09/16 06:18:54;;;;;;;4.72;1.13;;;10.00;99.90;;;;;;5084456;28;20062;-65
2022/09/16 06:21:20;;;;;;;8.02;1.30;;;10.00;99.90;;;;;;5085205;28;20039;-65
2022/09/16 06:23:46;;;;;;;5.85;1.20;;;10.00;99.90;;;;;;5083584;28;20047;-65
2022/09/16 06:26:14;;;;;;;5.43;1.25;;;10.00;99.90;;;;;;5076653;28;20131;-65
2022/09/16 06:28:40;;;;;;;7.38;1.40;;;10.10;99.90;;;;;;5078471;28;20803;-65
2022/09/16 06:31:09;;;;;;;7.75;1.10;;;10.20;99.90;;;;;;5084263;28;20032;-65
2022/09/16 06:33:35;;;;;;;6.15;1.20;;;10.50;99.90;;;;;;5085512;28;20047;-65
2022/09/16 06:36:06;;;;;;;11.40;1.58;;;10.70;99.90;;;;;;5079901;28;20089;-65
2022/09/16 06:38:32;;;;;;;8.02;1.25;;;10.90;99.90;;;;;;5073886;28;20071;-65
2022/09/16 06:41:02;;;;;;;6.72;1.17;;;11.00;99.90;;;;;;5079971;28;20068;-66
2022/09/16 06:43:28;;;;;;;5.40;1.42;;;11.10;99.90;;;;;;5074063;28;20203;-65
2022/09/16 06:45:58;;;;;;;8.30;1.30;;;11.20;99.90;;;;;;5085213;28;20515;-66
2022/09/16 06:48:24;;;;;;;7.10;1.10;;;11.40;99.90;;;;;;5089080;28;20104;-66
2022/09/16 06:50:56;;;;;;;8.18;1.17;;;11.60;99.90;;;;;;5086474;28;20036;-66
2022/09/16 06:53:22;;;;;;;5.75;1.55;;;11.70;99.90;;;;;;5090137;28;20147;-66
2022/09/16 06:55:47;;;;;;;5.05;1.20;;;11.90;99.90;;;;;;5085173;28;20127;-67
2022/09/16 06:58:13;;;;;;;7.03;1.40;;;12.00;99.90;;;;;;5085343;28;20044;-65
2022/09/16 07:00:40;;;;;;;3.03;0.90;;;12.10;99.90;;;;;;5086422;28;20463;-65
2022/09/16 07:03:06;;;;;;;6.70;0.90;;;12.30;99.90;;;;;;5083317;28;20095;-66
2022/09/16 07:05:31;;;;;;;3.35;0.80;;;12.40;99.90;;;;;;5084958;28;20087;-66
2022/09/16 07:07:57;;;;;;;5.22;1.13;;;12.60;99.90;;;;;;5089802;28;20399;-66
2022/09/16 07:10:24;;;;;;;3.95;1.13;;;12.80;99.90;;;;;;5089279;28;20028;-66
2022/09/16 07:12:49;;;;;;;5.13;1.25;;;12.90;99.90;;;;;;5090012;28;20119;-66
2022/09/16 07:15:15;;;;;;;8.88;1.50;;;13.10;99.90;;;;;;5085332;28;20122;-66
2022/09/16 07:17:40;;;;;;;6.18;1.15;;;13.20;99.90;;;;;;5091311;28;20123;-66
2022/09/16 07:20:06;;;;;;;5.57;1.00;;;13.40;99.90;;;;;;5090760;28;20780;-66
2022/09/16 07:22:32;;;;;;;4.25;1.25;;;13.60;99.90;;;;;;5083486;28;20526;-65
2022/09/16 07:24:57;;;;;;;9.43;1.55;;;13.70;99.90;;;;;;5084637;28;20040;-65
2022/09/16 07:27:23;;;;;;;6.82;1.48;;;13.60;99.90;;;;;;5081900;28;20076;-65
2022/09/16 07:29:48;;;;;;;4.50;1.08;;;13.60;99.90;;;;;;5087600;28;20047;-65
2022/09/16 07:32:14;;;;;;;6.68;1.42;;;13.50;99.90;;;;;;5092581;28;20039;-65
2022/09/16 07:34:40;;;;;;;8.32;1.73;;;13.30;99.90;;;;;;5083568;28;20036;-64
2022/09/16 07:37:05;;;;;;;11.30;1.85;;;13.30;99.90;;;;;;5081822;28;20035;-65
2022/09/16 07:39:31;;;;;;;7.15;1.20;;;13.30;99.90;;;;;;5072493;28;20127;-66
2022/09/16 07:41:56;;;;;;;9.00;1.42;;;13.40;99.90;;;;;;5086994;28;20039;-65
2022/09/16 07:44:23;;;;;;;5.93;1.38;;;13.40;99.90;;;;;;5086403;28;20036;-65
2022/09/16 07:46:49;;;;;;;6.07;1.10;;;13.40;99.90;;;;;;5080585;28;20180;-65
2022/09/16 07:49:16;;;;;;;6.95;1.50;;;13.50;99.90;;;;;;5079521;28;20139;-64
2022/09/16 07:51:42;;;;;;;8.68;1.63;;;13.60;99.90;;;;;;5078444;28;20036;-64
2022/09/16 07:54:10;;;;;;;4.63;1.50;;;13.80;99.90;;;;;;5078083;28;20079;-63
2022/09/16 07:56:37;;;;;;;6.60;1.48;;;13.70;99.90;;;;;;5085249;28;20047;-64
2022/09/16 07:59:05;;;;;;;7.35;1.25;;;13.70;99.90;;;;;;5072546;28;20097;-64
2022/09/16 08:01:31;;;;;;;6.75;1.25;;;13.80;99.90;;;;;;5074165;28;20042;-63
2022/09/16 08:03:58;;;;;;;7.30;1.52;;;13.80;99.90;;;;;;5072234;28;20218;-63
2022/09/16 08:06:26;;;;;;;7.47;1.55;;;13.80;99.90;;;;;;5082514;28;20123;-64
2022/09/16 08:08:54;;;;;;;8.05;1.50;;;13.70;99.90;;;;;;5072836;28;20090;-63
2022/09/16 08:11:20;;;;;;;6.88;1.10;;;13.80;99.90;;;;;;5072945;28;20097;-63
2022/09/16 08:13:45;;;;;;;8.23;1.38;;;13.90;99.90;;;;;;5078350;28;20044;-63
2022/09/16 08:16:16;;;;;;;6.22;1.20;;;14.00;99.90;;;;;;5083957;28;20036;-63
2022/09/16 08:18:42;;;;;;;7.63;1.20;;;14.00;99.90;;;;;;5071007;28;20045;-62
2022/09/16 08:21:14;;;;;;;10.15;1.30;;;14.10;99.90;;;;;;5074117;28;20089;-63
2022/09/16 08:23:40;;;;;;;8.00;1.40;;;14.30;99.90;;;;;;5080547;28;20051;-63
2022/09/16 08:26:08;;;;;;;8.48;1.40;;;14.50;99.90;;;;;;5083325;28;20445;-63
2022/09/16 08:28:34;;;;;;;9.50;1.63;;;14.40;99.90;;;;;;5072241;28;20483;-63
2022/09/16 08:31:00;;;;;;;9.52;1.48;;;14.50;99.90;;;;;;5074591;28;20024;-62
2022/09/16 08:33:27;;;;;;;13.18;1.70;;;14.70;99.90;;;;;;5080210;28;20050;-63
2022/09/16 08:36:00;;;;;;;10.07;1.40;;;15.10;99.90;;;;;;5079860;28;20043;-63
2022/09/16 08:38:25;;;;;;;6.68;1.73;;;15.20;99.90;;;;;;5078991;28;20061;-62
2022/09/16 08:40:58;;;;;;;10.70;1.80;;;15.10;99.90;;;;;;5079133;28;20040;-63
2022/09/16 08:43:42;;;;;;;8.70;1.58;;;15.00;99.90;;;;;;5080923;28;20040;-63
2022/09/16 08:46:21;;;;;;;6.28;1.58;;;15.00;99.90;;;;;;5091698;28;20048;-63
2022/09/16 08:48:55;;;;;;;11.48;1.60;;;15.20;99.90;;;;;;5089208;28;20035;-63
2022/09/16 08:51:22;;;;;;;10.07;1.80;;;15.80;99.90;;;;;;5085776;28;20051;-63
2022/09/16 08:54:22;;;;;;;7.35;1.55;;;16.10;99.90;;;;;;5076219;28;20408;-63
2022/09/16 08:56:48;;;;;;;8.90;1.27;;;16.20;99.90;;;;;;5064361;28;20052;-62
2022/09/16 08:59:19;;;;;;;7.70;1.60;;;16.10;99.90;;;;;;5080977;28;20052;-63
2022/09/16 09:02:06;;;;;;;5.97;1.23;;;15.70;99.90;;;;;;5081459;28;20667;-63
2022/09/16 09:04:32;;;;;;;6.65;1.40;;;15.60;99.90;;;;;;5074576;28;20048;-63
2022/09/16 09:07:24;;;;;;;7.18;1.70;;;15.30;99.90;;;;;;5068328;28;20502;-63
2022/09/16 09:09:53;;;;;;;8.38;1.88;;;15.40;99.90;;;;;;5071198;28;20068;-63
2022/09/16 09:12:39;;;;;;;9.23;1.63;;;15.40;99.90;;;;;;5075965;28;20036;-62
2022/09/16 09:15:31;;;;;;;6.63;1.00;;;15.40;99.90;;;;;;5070520;28;20458;-63
2022/09/16 09:18:26;;;;;;;8.93;1.20;;;15.40;99.90;;;;;;5084940;28;20579;-63
2022/09/16 09:21:30;;;;;;;6.63;1.33;;;15.50;99.90;;;;;;5069948;28;20087;-63
2022/09/16 09:24:33;;;;;;;10.02;1.48;;;15.80;99.90;;;;;;5071873;28;20067;-63
2022/09/16 09:27:12;;;;;;;10.95;1.90;;;15.90;99.90;;;;;;5069888;28;20062;-63
2022/09/16 09:30:24;;;;;;;7.35;1.38;;;16.00;99.90;;;;;;5075518;28;20047;-62
2022/09/16 09:33:12;;;;;;;9.25;1.88;;;16.00;99.90;;;;;;5062646;28;20051;-62
2022/09/16 09:36:03;;;;;;;8.25;1.48;;;16.00;99.90;;;;;;5076594;28;20056;-63
2022/09/16 09:38:42;;;;;;;7.07;1.20;;;16.10;99.90;;;;;;5070936;28;20361;-63
2022/09/16 09:41:16;;;;;;;8.63;1.15;;;16.40;99.90;;;;;;5073539;28;20040;-63
2022/09/16 09:44:00;;;;;;;6.53;1.10;;;16.50;99.90;;;;;;5084353;28;20123;-64
2022/09/16 09:46:36;;;;;;;6.57;1.35;;;16.50;99.90;;;;;;5069993;28;20048;-64
2022/09/16 09:49:15;;;;;;;6.93;1.33;;;16.40;99.90;;;;;;5073208;28;20036;-63
2022/09/16 09:51:52;;;;;;;5.45;1.40;;;16.10;99.90;;;;;;5074886;28;20043;-64
2022/09/16 09:54:24;;;;;;;5.60;1.13;;;16.10;99.90;;;;;;5070053;28;20047;-63
2022/09/16 09:56:54;;;;;;;6.78;1.13;;;16.10;99.90;;;;;;5079674;28;20047;-63
2022/09/16 09:59:35;;;;;;;5.87;1.00;;;16.10;99.90;;;;;;5076961;28;20051;-62
2022/09/16 10:02:00;;;;;;;;;;;16.10;99.90;;;;;;5070462;28;20040;-63
2022/09/16 10:04:34;;;;;;;6.55;1.30;;;16.40;99.40;;;;;;5079575;28;19924;-63
2022/09/16 10:07:00;;;;;;;10.98;1.50;;;16.30;99.90;;;;;;5079250;28;20107;-64
2022/09/16 10:09:26;;;;;;;7.25;1.40;;;16.50;99.90;;;;;;5074270;28;20121;-65
2022/09/16 10:11:54;;;;;;;4.70;1.15;;;16.70;98.70;;;;;;5069761;28;20048;-65
2022/09/16 10:14:33;;;;;;;6.55;1.13;;;17.10;99.10;;;;;;5077362;28;20040;-64
2022/09/16 10:17:14;;;;;;;5.90;1.38;;;17.50;97.70;;;;;;5081938;28;20040;-64
2022/09/16 10:19:49;;;;;;;6.90;1.27;;;17.50;99.20;;;;;;5071977;28;20107;-64
2022/09/16 10:22:24;;;;;;;5.45;1.25;;;17.20;98.10;;;;;;5072851;28;20040;-63
2022/09/16 10:25:23;;;;;;;8.23;1.08;;;16.90;98.40;;;;;;5073094;28;20044;-64
2022/09/16 10:27:59;;;;;;;7.45;1.42;;;16.80;99.40;;;;;;5076199;28;20052;-64
2022/09/16 10:30:27;;;;;;;6.32;0.93;;;16.80;99.80;;;;;;5085274;28;20457;-64
2022/09/16 10:33:16;;;;;;;6.55;1.10;;;16.80;99.90;;;;;;5087449;28;20067;-64
2022/09/16 10:36:04;;;;;;;8.32;1.00;;;17.20;99.40;;;;;;5084109;28;20040;-64
2022/09/16 10:38:37;;;;;;;7.68;1.15;;;17.40;99.90;;;;;;5080576;28;20039;-65
2022/09/16 10:41:08;;;;;;;9.55;1.40;;;17.60;96.90;;;;;;5084811;28;20440;-63
2022/09/16 10:43:37;;;;;;;13.18;1.15;;;17.70;96.90;;;;;;5084278;28;20036;-63
2022/09/16 10:46:04;;;;;;;11.38;1.45;;;17.80;97.50;;;;;;5085101;28;20391;-63
2022/09/16 10:48:32;;;;;;;7.20;1.30;;;17.30;97.90;;;;;;5082223;28;20410;-64
2022/09/16 10:50:59;;;;;;;6.20;1.40;;;16.80;99.10;;;;;;5079443;28;20048;-63
2022/09/16 10:53:34;;;;;;;6.85;1.30;;;16.30;99.60;;;;;;5075930;28;20032;-63
2022/09/16 10:56:05;;;;;;;9.30;1.15;;;16.20;98.80;;;;;;5081579;28;20040;-63
2022/09/16 10:58:31;;;;;;;3.97;1.15;;;16.10;99.80;;;;;;5085544;28;20497;-63
2022/09/16 11:01:12;;;;;;;9.57;1.63;;;16.00;99.90;;;;;;5081830;28;20036;-64
2022/09/16 11:03:52;;;;;;;8.88;1.23;;;16.00;98.30;;;;;;5079310;28;20197;-63
2022/09/16 11:06:24;;;;;;;;;;;16.00;99.20;;;;;;5081436;28;20040;-64
2022/09/16 11:09:01;;;;;;;8.02;1.25;;;16.10;96.50;;;;;;5083181;28;20432;-63
2022/09/16 11:12:00;;;;;;;3.33;0.73;;;16.20;99.10;;;;;;5086286;28;20036;-63
2022/09/16 11:14:56;;;;;;;8.95;1.25;;;16.40;98.60;;;;;;5082110;28;20143;-64
2022/09/16 11:17:45;;;;;;;9.98;1.70;;;16.90;92.60;;;;;;5081031;28;20162;-66
2022/09/16 11:20:31;;;;;;;6.72;1.60;;;17.20;92.70;;;;;;5089418;28;20032;-65
2022/09/16 11:23:17;;;;;;;5.43;1.30;;;17.20;95.50;;;;;;5078704;28;20055;-65
2022/09/16 11:25:58;;;;;;;7.88;1.35;;;17.10;96.30;;;;;;5073464;28;20612;-64
2022/09/16 11:28:52;;;;;;;7.55;1.35;;;17.10;95.70;;;;;;5082152;28;20404;-64
2022/09/16 11:31:56;;;;;;;4.30;1.05;;;17.00;95.90;;;;;;5082285;28;20035;-65
2022/09/16 11:34:33;;;;;;;9.60;1.58;;;17.00;95.90;;;;;;5074471;28;20082;-65
2022/09/16 11:37:12;;;;;;;3.78;1.10;;;17.00;94.10;;;;;;5081903;28;20047;-66
2022/09/16 11:40:19;;;;;;;2.72;0.88;;;16.90;94.00;;;;;;5089278;28;20063;-64
2022/09/16 11:42:56;;;;;;;5.95;0.90;;;17.10;92.90;;;;;;5089524;28;20130;-64
2022/09/16 11:46:01;;;;;;;4.38;0.90;;;17.10;92.50;;;;;;5084937;28;20063;-65
2022/09/16 11:48:35;;;;;;;3.60;0.90;;;17.10;93.10;;;;;;5072434;28;20051;-64
2022/09/16 11:51:17;;;;;;;6.50;0.77;;;17.10;94.00;;;;;;5089446;28;20483;-64
2022/09/16 11:54:08;;;;;;;6.40;1.10;;;17.00;94.00;;;;;;5088503;28;20115;-64
2022/09/16 11:56:38;;;;;;;5.25;0.90;;;16.80;94.00;;;;;;5086619;28;20039;-63
2022/09/16 11:59:31;;;;;;;5.05;1.20;;;16.10;94.90;;;;;;5088491;28;20040;-65
2022/09/16 12:02:02;;;;;;;6.78;1.05;;;15.80;97.70;;;;;;5089919;28;20051;-64
2022/09/16 12:04:38;;;;;;;3.38;0.80;;;15.50;97.40;;;;;;5091533;28;20052;-63
2022/09/16 12:07:30;;;;;;;4.10;0.88;;;15.60;97.20;;;;;;5087630;28;20078;-64
2022/09/16 12:10:00;;;;;;;8.25;0.88;;;15.80;99.00;;;;;;5086098;28;20445;-65
2022/09/16 12:12:39;;;;;;;8.40;1.42;;;16.00;99.40;;;;;;5081460;28;20406;-64
2022/09/16 12:15:18;;;;;;;6.70;1.27;;;16.20;99.30;;;;;;5092949;28;20036;-65
2022/09/16 12:17:52;;;;;;;9.80;1.45;;;16.20;99.20;;;;;;5083623;28;20036;-64
2022/09/16 12:20:22;;;;;;;10.23;1.73;;;16.20;99.10;;;;;;5088796;28;20830;-65
2022/09/16 12:22:50;;;;;;;;;;;16.20;98.60;;;;;;5087095;28;20044;-64
2022/09/16 12:25:26;;;;;;;3.88;0.98;;;16.40;98.50;;;;;;5091317;28;19916;-64
2022/09/16 12:27:58;;;;;;;5.20;1.40;;;16.70;98.00;;;;;;5088241;28;20036;-65
2022/09/16 12:30:33;;;;;;;7.00;1.05;;;16.80;98.00;;;;;;5088948;28;20071;-64
2022/09/16 12:33:01;;;;;;;6.45;1.40;;;17.10;95.40;;;;;;5092770;28;20082;-64
2022/09/16 12:35:42;;;;;;;6.88;1.40;;;17.30;96.40;;;;;;5089411;28;20124;-66
2022/09/16 12:38:15;;;;;;;9.43;1.50;;;17.50;92.80;;;;;;5091000;28;20048;-64
2022/09/16 12:40:53;;;;;;;9.23;1.40;;;17.80;95.60;;;;;;5087431;28;20032;-64
2022/09/16 12:43:43;;;;;;;7.53;1.50;;;18.10;94.30;;;;;;5088946;28;20048;-64
2022/09/16 12:46:37;;;;;;;10.57;1.95;;;18.50;92.90;;;;;;5087169;28;20044;-64
2022/09/16 12:49:18;;;;;;;7.93;1.65;;;19.00;94.00;;;;;;5088461;28;20550;-64
2022/09/16 12:52:16;;;;;;;6.75;1.67;;;19.10;92.20;;;;;;5087931;28;20714;-64
2022/09/16 12:55:12;;;;;;;6.30;1.40;;;18.80;78.40;;;;;;5090912;28;20463;-65
2022/09/16 12:57:56;;;;;;;9.90;1.98;;;18.50;78.40;;;;;;5071107;28;20400;-64
2022/09/16 13:00:27;;;;;;;8.98;1.70;;;18.20;90.40;;;;;;5070223;28;20045;-65
2022/09/16 13:02:54;;;;;;;;;;;18.20;84.00;;;;;;5072589;28;20133;-64
2022/09/16 13:05:44;;;;;;;10.30;1.50;;;18.30;86.40;;;;;;5085412;28;19919;-63
2022/09/16 13:08:36;;;;;;;12.02;2.13;;;18.40;91.70;;;;;;5090348;28;20041;-63
2022/09/16 13:11:13;;;;;;;11.02;1.60;;;18.60;88.40;;;;;;5089409;28;20480;-64
2022/09/16 13:13:47;;;;;;;10.07;2.10;;;18.60;88.80;;;;;;5089456;28;20158;-64
2022/09/16 13:16:13;;;;;;;7.15;1.65;;;18.80;90.20;;;;;;5085408;28;20032;-65
2022/09/16 13:18:49;;;;;;;10.48;2.15;;;18.70;89.10;;;;;;5087717;28;20047;-64
2022/09/16 13:21:39;;;;;;;9.05;2.20;;;18.90;85.20;;;;;;5086765;28;20072;-64